createdAt,value
2019-06-26T00:03:31.200Z,11.50
2019-06-26T00:08:33.188Z,9.70
2019-06-26T00:13:35.192Z,11.47
2019-06-26T00:18:37.654Z,11.80
2019-06-26T00:23:40.189Z,10.83
2019-06-26T00:28:42.151Z,11.70
2019-06-26T00:33:43.976Z,10.57
2019-06-26T00:38:45.905Z,10.33
2019-06-26T00:43:48.688Z,10.40
2019-06-26T00:48:51.300Z,10.03
2019-06-26T00:53:53.523Z,10.20
2019-06-26T00:58:56.458Z,9.67
2019-06-26T01:04:02.869Z,10.27
2019-06-26T01:09:05.873Z,10.40
2019-06-26T01:14:08.461Z,10.47
2019-06-26T01:19:10.606Z,10.27
2019-06-26T01:24:12.524Z,10.60
2019-06-26T01:29:14.788Z,10.00
2019-06-26T01:34:16.613Z,10.27
2019-06-26T01:39:18.586Z,10.07
2019-06-26T01:44:21.268Z,9.53
2019-06-26T01:49:23.217Z,9.97
2019-06-26T01:54:25.158Z,10.00
2019-06-26T01:59:27.956Z,10.27
2019-06-26T02:04:30.109Z,9.83
2019-06-26T02:09:32.344Z,9.63
2019-06-26T02:14:34.277Z,10.00
2019-06-26T02:19:36.213Z,10.17
2019-06-26T02:24:38.672Z,10.10
2019-06-26T02:29:40.588Z,10.00
2019-06-26T02:34:42.746Z,10.00
2019-06-26T02:39:45.298Z,10.00
2019-06-26T02:44:53.963Z,10.40
2019-06-26T02:49:51.925Z,10.23
2019-06-26T02:54:54.294Z,10.67
2019-06-26T02:59:56.657Z,10.60
2019-06-26T03:04:58.757Z,10.63
2019-06-26T03:10:00.580Z,10.73
2019-06-26T03:15:08.803Z,10.50
2019-06-26T03:20:07.303Z,11.20
2019-06-26T03:25:11.741Z,11.90
2019-06-26T03:30:14.102Z,11.17
2019-06-26T03:35:16.497Z,11.40
2019-06-26T03:40:19.688Z,11.83
2019-06-26T03:45:26.097Z,11.73
2019-06-26T03:50:26.526Z,11.60
2019-06-26T03:55:29.103Z,11.23
2019-06-26T04:00:39.326Z,12.50
2019-06-26T04:05:42.413Z,12.30
2019-06-26T04:10:44.340Z,13.03
2019-06-26T04:15:46.445Z,12.87
2019-06-26T04:20:48.296Z,15.10
2019-06-26T04:25:51.772Z,13.30
2019-06-26T04:30:53.692Z,14.93
2019-06-26T04:35:55.555Z,14.23
2019-06-26T04:40:57.514Z,15.10
2019-06-26T04:45:59.496Z,15.87
2019-06-26T04:51:01.594Z,14.20
2019-06-26T04:56:04.144Z,15.37
2019-06-26T05:01:06.024Z,15.53
2019-06-26T05:06:08.937Z,16.33
2019-06-26T05:11:12.881Z,15.90
2019-06-26T05:16:19.060Z,15.57
2019-06-26T05:21:19.292Z,16.47
2019-06-26T05:26:21.656Z,15.80
2019-06-26T05:31:23.607Z,16.20
2019-06-26T05:36:25.417Z,16.50
2019-06-26T05:41:27.700Z,16.63
2019-06-26T05:46:31.413Z,16.90
2019-06-26T05:51:34.088Z,17.07
2019-06-26T05:56:36.543Z,16.87
2019-06-26T06:01:38.525Z,17.17
2019-06-26T06:06:42.386Z,16.37
2019-06-26T06:11:44.419Z,17.10
2019-06-26T06:16:47.978Z,16.43
2019-06-26T06:21:50.100Z,15.93
2019-06-26T06:26:52.513Z,15.83
2019-06-26T06:31:54.533Z,16.10
2019-06-26T06:36:56.960Z,16.77
2019-06-26T06:41:59.186Z,15.47
2019-06-26T06:47:04.308Z,16.37
2019-06-26T06:52:05.269Z,15.93
2019-06-26T06:57:07.527Z,15.33
2019-06-26T07:02:09.981Z,14.73
2019-06-26T07:07:12.140Z,14.00
2019-06-26T07:12:14.765Z,14.80
2019-06-26T07:17:20.919Z,13.37
2019-06-26T07:22:21.836Z,12.03
2019-06-26T07:27:24.141Z,12.47
2019-06-26T07:32:27.990Z,12.23
2019-06-26T07:37:30.508Z,11.80
2019-06-26T07:42:36.149Z,10.90
2019-06-26T07:47:43.741Z,10.47
2019-06-26T07:52:43.243Z,10.53
2019-06-26T07:57:45.180Z,10.53
2019-06-26T08:02:47.416Z,9.98
2019-06-26T08:07:49.537Z,10.15
2019-06-26T08:12:51.651Z,10.03
2019-06-26T08:18:00.748Z,10.13
2019-06-26T08:22:58.493Z,9.90
2019-06-26T08:28:00.334Z,10.10
2019-06-26T08:33:03.813Z,9.40
2019-06-26T08:38:11.345Z,9.60
2019-06-26T08:43:09.512Z,9.40
2019-06-26T08:48:22.594Z,9.25
2019-06-26T08:53:15.868Z,8.85
2019-06-26T08:58:18.224Z,8.88
2019-06-26T09:03:20.597Z,9.33
2019-06-26T09:08:22.908Z,8.45
2019-06-26T09:13:24.995Z,8.50
2019-06-26T09:18:35.294Z,8.35
2019-06-26T09:23:32.223Z,8.20
2019-06-26T09:28:34.346Z,8.50
2019-06-26T09:33:36.749Z,8.80
2019-06-26T09:38:38.701Z,8.43
2019-06-26T09:43:41.022Z,8.28
2019-06-26T09:48:52.721Z,8.38
2019-06-26T09:53:49.766Z,7.50
2019-06-26T09:58:52.149Z,7.45
2019-06-26T10:03:54.167Z,6.67
2019-06-26T10:08:56.634Z,6.95
2019-06-26T10:13:58.558Z,7.08
2019-06-26T10:19:09.896Z,7.30
2019-06-26T10:24:05.201Z,7.55
2019-06-26T10:29:07.448Z,8.28
2019-06-26T10:34:10.486Z,7.75
2019-06-26T10:39:13.249Z,7.83
2019-06-26T10:44:15.434Z,7.97
2019-06-26T10:49:27.110Z,8.55
2019-06-26T10:54:21.204Z,8.15
2019-06-26T10:59:23.647Z,8.40
2019-06-26T11:04:26.217Z,8.80
2019-06-26T11:09:28.510Z,8.40
2019-06-26T11:14:30.797Z,8.40
2019-06-26T11:19:43.428Z,8.13
2019-06-26T11:24:37.113Z,8.13
2019-06-26T11:29:39.198Z,7.67
2019-06-26T11:34:41.156Z,7.87
2019-06-26T11:39:43.185Z,8.03
2019-06-26T11:44:45.007Z,8.38
2019-06-26T11:49:59.338Z,7.33
2019-06-26T11:55:01.763Z,7.40
2019-06-26T11:59:56.175Z,7.92
2019-06-26T12:04:58.600Z,7.53
2019-06-26T12:10:00.640Z,7.10
2019-06-26T12:15:03.451Z,7.05
2019-06-26T12:20:17.965Z,7.20
2019-06-26T12:25:10.518Z,7.35
2019-06-26T12:30:13.000Z,7.70
2019-06-26T12:35:16.667Z,7.70
2019-06-26T12:40:19.025Z,7.80
2019-06-26T12:45:22.066Z,8.30
2019-06-26T12:50:35.361Z,8.55
2019-06-26T12:55:32.783Z,8.28
2019-06-26T13:00:33.537Z,8.20
2019-06-26T13:05:36.212Z,8.15
2019-06-26T13:10:49.012Z,8.53
2019-06-26T13:15:43.162Z,8.03
2019-06-26T13:20:52.767Z,8.23
2019-06-26T13:25:49.112Z,8.98
2019-06-26T13:30:53.343Z,8.30
2019-06-26T13:35:55.920Z,7.65
2019-06-26T13:40:58.210Z,8.43
2019-06-26T13:46:00.496Z,8.45
2019-06-26T13:51:09.157Z,8.70
2019-06-26T13:56:07.014Z,8.70
2019-06-26T14:01:09.391Z,8.93
2019-06-26T14:06:11.897Z,8.80
2019-06-26T14:11:14.008Z,9.08
2019-06-26T14:16:16.153Z,9.78
2019-06-26T14:21:25.558Z,9.05
2019-06-26T14:26:22.890Z,8.80
2019-06-26T14:31:25.174Z,8.85
2019-06-26T14:36:28.389Z,8.75
2019-06-26T14:41:30.240Z,7.78
2019-06-26T14:46:33.302Z,8.85
2019-06-26T14:51:43.915Z,8.13
2019-06-26T14:56:40.116Z,7.80
2019-06-26T15:01:42.240Z,8.30
2019-06-26T15:06:44.747Z,8.43
2019-06-26T15:11:46.676Z,7.85
2019-06-26T15:16:48.795Z,8.20
2019-06-26T15:21:58.236Z,8.38
2019-06-26T15:26:56.380Z,7.62
2019-06-26T15:31:58.563Z,7.85
2019-06-26T15:37:00.577Z,7.37
2019-06-26T15:42:03.129Z,7.73
2019-06-26T15:47:06.345Z,7.53
2019-06-26T15:52:14.834Z,8.30
2019-06-26T15:57:12.777Z,7.03
2019-06-26T16:02:15.232Z,7.17
2019-06-26T16:07:17.358Z,7.20
2019-06-26T16:12:19.677Z,7.47
2019-06-26T16:17:32.566Z,6.97
2019-06-26T16:22:34.438Z,6.10
2019-06-26T16:27:36.526Z,7.00
2019-06-26T16:32:38.474Z,6.67
2019-06-26T16:37:40.582Z,6.58
2019-06-26T16:42:42.511Z,7.13
2019-06-26T16:47:45.054Z,7.07
2019-06-26T16:52:49.651Z,7.00
2019-06-26T16:57:51.437Z,7.13
2019-06-26T17:02:53.453Z,6.70
2019-06-26T17:07:55.617Z,6.63
2019-06-26T17:12:57.577Z,5.93
2019-06-26T17:17:59.884Z,5.63
2019-06-26T17:23:06.049Z,5.35
2019-06-26T17:28:06.240Z,5.40
2019-06-26T17:33:08.687Z,5.40
2019-06-26T17:38:10.866Z,4.63
2019-06-26T17:43:13.152Z,4.33
2019-06-26T17:48:15.652Z,3.93
2019-06-26T17:53:21.983Z,3.87
2019-06-26T17:58:25.354Z,4.47
2019-06-26T18:03:26.140Z,3.60
2019-06-26T18:08:28.036Z,4.07
2019-06-26T18:13:29.976Z,3.83
2019-06-26T18:18:32.132Z,4.30
2019-06-26T18:23:38.458Z,4.20
2019-06-26T18:28:38.679Z,4.27
2019-06-26T18:33:44.177Z,4.93
2019-06-26T18:38:45.263Z,4.20
2019-06-26T18:43:47.118Z,4.80
2019-06-26T18:48:49.641Z,4.93
2019-06-26T18:53:53.848Z,4.50
2019-06-26T18:58:55.343Z,5.20
2019-06-26T19:03:57.253Z,5.57
2019-06-26T19:08:59.371Z,4.93
2019-06-26T19:14:01.932Z,4.93
2019-06-26T19:19:04.397Z,5.27
2019-06-26T19:24:10.564Z,5.70
2019-06-26T19:29:11.226Z,6.57
2019-06-26T19:34:13.481Z,5.60
2019-06-26T19:39:20.503Z,5.53
2019-06-26T19:44:21.526Z,5.77
2019-06-26T19:49:23.909Z,6.60
2019-06-26T19:54:28.615Z,6.10
2019-06-26T19:59:31.092Z,5.50
2019-06-26T20:04:33.950Z,5.23
2019-06-26T20:09:36.879Z,5.20
2019-06-26T20:14:39.231Z,5.07
2019-06-26T20:19:41.414Z,5.10
2019-06-26T20:24:45.073Z,5.03
2019-06-26T20:29:48.231Z,4.73
2019-06-26T20:34:50.657Z,5.07
2019-06-26T20:39:53.206Z,4.70
2019-06-26T20:44:55.947Z,5.10
2019-06-26T20:49:58.158Z,4.60
2019-06-26T20:55:02.614Z,5.03
2019-06-26T21:00:05.515Z,5.20
2019-06-26T21:05:09.448Z,5.40
2019-06-26T21:10:11.972Z,4.70
2019-06-26T21:15:15.153Z,4.80
2019-06-26T21:20:18.241Z,4.17
2019-06-26T21:25:21.070Z,5.10
2019-06-26T21:30:23.203Z,4.30
2019-06-26T21:35:25.348Z,4.47
2019-06-26T21:40:28.341Z,4.03
2019-06-26T21:45:31.129Z,3.90
2019-06-26T21:50:33.912Z,3.60
2019-06-26T21:55:36.313Z,3.83
2019-06-26T22:00:57.374Z,3.40
2019-06-26T22:06:18.176Z,3.73
2019-06-26T22:11:40.723Z,3.37
2019-06-26T22:16:43.006Z,3.00
2019-06-26T22:21:45.438Z,2.80
2019-06-26T22:26:47.904Z,3.40
2019-06-26T22:31:50.677Z,2.90
2019-06-26T22:36:54.573Z,3.40
2019-06-26T22:41:57.513Z,2.90
2019-06-26T22:47:01.452Z,3.30
2019-06-26T22:52:03.950Z,3.27
2019-06-26T22:57:05.892Z,3.67
2019-06-26T23:02:08.489Z,3.50
2019-06-26T23:07:10.686Z,3.80
2019-06-26T23:12:12.992Z,3.40
2019-06-26T23:17:15.132Z,3.43
2019-06-26T23:22:17.185Z,3.70
2019-06-26T23:27:19.421Z,4.07
2019-06-26T23:32:22.303Z,4.17
2019-06-26T23:37:24.664Z,4.17
2019-06-26T23:42:27.383Z,4.43
2019-06-26T23:47:29.585Z,4.40
2019-06-26T23:52:32.192Z,4.43
2019-06-26T23:57:34.480Z,5.17
